createdAt,value
2023-02-19T00:01:52.097Z,101746.88
2023-02-19T00:04:22.091Z,101741.84
2023-02-19T00:06:49.251Z,101750.31
2023-02-19T00:09:18.069Z,101742.31
2023-02-19T00:11:45.004Z,101742.44
2023-02-19T00:14:16.555Z,101755.53
2023-02-19T00:16:43.330Z,101726.63
2023-02-19T00:19:14.384Z,101745.78
2023-02-19T00:21:41.182Z,101767.50
2023-02-19T00:24:08.491Z,101748.53
2023-02-19T00:26:35.608Z,101760.69
2023-02-19T00:29:02.580Z,101769.25
2023-02-19T00:31:33.202Z,101765.88
2023-02-19T00:34:03.878Z,101769.16
2023-02-19T00:36:31.359Z,101772.63
2023-02-19T00:38:58.385Z,101755.09
2023-02-19T00:41:25.727Z,101770.78
2023-02-19T00:43:53.590Z,101776.88
2023-02-19T00:46:23.278Z,101771.59
2023-02-19T00:48:50.162Z,101780.16
2023-02-19T00:51:18.876Z,101770.50
2023-02-19T00:53:45.719Z,101751.50
2023-02-19T00:56:13.062Z,101783.94
2023-02-19T00:58:39.943Z,101784.56
2023-02-19T01:01:07.655Z,101764.34
2023-02-19T01:03:35.532Z,101772.19
2023-02-19T01:06:03.294Z,101758.31
2023-02-19T01:08:33.649Z,101765.91
2023-02-19T01:11:01.011Z,101774.72
2023-02-19T01:13:28.629Z,101786.75
2023-02-19T01:16:04.195Z,101790.22
2023-02-19T01:18:31.841Z,101785.13
2023-02-19T01:20:58.575Z,101779.06
2023-02-19T01:23:25.450Z,101761.50
2023-02-19T01:25:51.980Z,101775.16
2023-02-19T01:28:18.579Z,101758.50
2023-02-19T01:30:45.239Z,101797.75
2023-02-19T01:33:11.845Z,101779.47
2023-02-19T01:35:39.407Z,101803.88
2023-02-19T01:38:08.415Z,101789.84
2023-02-19T01:40:35.582Z,101802.06
2023-02-19T01:43:03.736Z,101808.22
2023-02-19T01:45:32.412Z,101806.34
2023-02-19T01:48:07.705Z,101798.75
2023-02-19T01:50:41.591Z,101803.88
2023-02-19T01:53:12.066Z,101804.63
2023-02-19T01:55:39.445Z,101787.91
2023-02-19T01:58:06.519Z,101786.91
2023-02-19T02:00:34.133Z,101813.06
2023-02-19T02:03:01.251Z,101811.22
2023-02-19T02:05:50.426Z,101816.41
2023-02-19T02:08:36.760Z,101819.91
2023-02-19T02:11:04.609Z,101807.81
2023-02-19T02:13:33.933Z,101812.00
2023-02-19T02:16:12.698Z,101807.50
2023-02-19T02:18:51.218Z,101825.78
2023-02-19T02:21:46.941Z,101824.94
2023-02-19T02:24:50.756Z,101818.06
2023-02-19T02:27:39.578Z,101823.06
2023-02-19T02:30:06.114Z,101828.38
2023-02-19T02:32:43.241Z,101834.22
2023-02-19T02:35:13.574Z,101817.66
2023-02-19T02:37:43.772Z,101819.31
2023-02-19T02:40:12.323Z,101822.91
2023-02-19T02:42:40.539Z,101825.50
2023-02-19T02:45:38.058Z,101831.44
2023-02-19T02:48:17.975Z,101834.81
2023-02-19T02:50:51.863Z,101845.03
2023-02-19T02:54:00.292Z,101831.25
2023-02-19T02:56:27.093Z,101833.03
2023-02-19T02:58:56.237Z,101836.31
2023-02-19T03:01:48.940Z,101847.47
2023-02-19T03:05:17.798Z,101839.75
2023-02-19T03:07:49.969Z,101842.19
2023-02-19T03:10:20.606Z,101848.25
2023-02-19T03:13:09.633Z,101847.44
2023-02-19T03:16:01.840Z,101849.03
2023-02-19T03:18:50.621Z,101856.72
2023-02-19T03:21:22.082Z,101859.41
2023-02-19T03:24:09.657Z,101851.41
2023-02-19T03:26:38.884Z,101859.25
2023-02-19T03:29:23.048Z,101863.41
2023-02-19T03:31:55.355Z,101861.69
2023-02-19T03:34:39.094Z,101858.19
2023-02-19T03:37:35.098Z,101871.91
2023-02-19T03:40:01.883Z,101876.34
2023-02-19T03:42:40.342Z,101858.00
2023-02-19T03:45:31.181Z,101879.91
2023-02-19T03:48:43.833Z,101872.84
2023-02-19T03:51:27.490Z,101871.03
2023-02-19T03:54:08.948Z,101870.00
2023-02-19T03:56:43.050Z,101878.75
2023-02-19T03:59:12.951Z,101893.41
2023-02-19T04:01:47.308Z,101907.84
2023-02-19T04:04:20.172Z,101873.91
2023-02-19T04:06:53.482Z,101910.56
2023-02-19T04:09:22.177Z,101878.16
2023-02-19T04:11:51.365Z,101905.91
2023-02-19T04:14:28.082Z,101907.63
2023-02-19T04:17:00.732Z,101917.19
2023-02-19T04:19:30.880Z,101900.34
2023-02-19T04:22:01.944Z,101901.13
2023-02-19T04:24:34.837Z,101919.41
2023-02-19T04:27:02.081Z,101914.25
2023-02-19T04:29:28.579Z,101933.06
2023-02-19T04:31:55.292Z,101931.28
2023-02-19T04:34:21.905Z,101947.72
2023-02-19T04:36:48.459Z,101945.13
2023-02-19T04:39:15.105Z,101955.38
2023-02-19T04:41:41.717Z,101943.88
2023-02-19T04:44:08.297Z,101968.97
2023-02-19T04:46:34.955Z,101959.31
2023-02-19T04:49:01.629Z,101967.00
2023-02-19T04:51:28.178Z,101972.34
2023-02-19T04:53:56.426Z,101978.22
2023-02-19T04:56:23.059Z,101966.78
2023-02-19T04:58:49.711Z,101970.44
2023-02-19T05:01:16.520Z,101983.22
2023-02-19T05:03:43.535Z,101976.38
2023-02-19T05:06:12.425Z,101956.97
2023-02-19T05:08:39.413Z,101980.44
2023-02-19T05:11:08.110Z,101969.88
2023-02-19T05:13:34.816Z,102001.13
2023-02-19T05:16:07.355Z,102008.84
2023-02-19T05:18:34.734Z,102005.41
2023-02-19T05:21:01.922Z,102019.19
2023-02-19T05:23:29.034Z,102013.13
2023-02-19T05:25:55.602Z,102017.44
2023-02-19T05:28:28.725Z,102008.47
2023-02-19T05:30:57.654Z,102003.41
2023-02-19T05:33:26.113Z,102025.84
2023-02-19T05:35:55.072Z,101991.66
2023-02-19T05:38:22.897Z,102033.47
2023-02-19T05:40:54.132Z,102006.50
2023-02-19T05:43:20.771Z,102005.50
2023-02-19T05:45:47.499Z,102024.66
2023-02-19T05:48:14.188Z,102029.78
2023-02-19T05:50:40.801Z,102022.72
2023-02-19T05:53:07.435Z,102035.00
2023-02-19T05:55:35.707Z,102029.56
2023-02-19T05:58:02.342Z,102039.22
2023-02-19T06:00:30.994Z,102030.25
2023-02-19T06:02:57.649Z,102021.44
2023-02-19T06:05:24.413Z,102064.06
2023-02-19T06:07:51.169Z,102041.84
2023-02-19T06:10:18.254Z,102069.75
2023-02-19T06:12:44.933Z,102066.22
2023-02-19T06:15:11.564Z,102070.59
2023-02-19T06:17:38.261Z,102071.91
2023-02-19T06:20:05.185Z,102078.00
2023-02-19T06:22:31.758Z,102090.97
2023-02-19T06:24:58.358Z,102076.03
2023-02-19T06:27:25.010Z,102080.28
2023-02-19T06:29:51.538Z,102088.22
2023-02-19T06:32:18.494Z,102086.41
2023-02-19T06:34:45.133Z,102091.59
2023-02-19T06:37:11.703Z,102090.63
2023-02-19T06:39:38.415Z,102092.63
2023-02-19T06:42:05.012Z,102072.41
2023-02-19T06:44:31.961Z,102085.31
2023-02-19T06:46:58.516Z,102088.75
2023-02-19T06:49:25.138Z,102103.56
2023-02-19T06:51:51.787Z,102097.59
2023-02-19T06:54:18.414Z,102102.63
2023-02-19T06:56:47.050Z,102118.22
2023-02-19T06:59:16.914Z,102131.16
2023-02-19T07:01:45.200Z,102131.91
2023-02-19T07:04:12.048Z,102136.13
2023-02-19T07:06:39.174Z,102140.56
2023-02-19T07:09:07.525Z,102132.53
2023-02-19T07:11:35.664Z,102150.81
2023-02-19T07:14:16.391Z,102156.06
2023-02-19T07:16:44.020Z,102141.75
2023-02-19T07:19:12.098Z,102176.53
2023-02-19T07:21:38.807Z,102173.81
2023-02-19T07:24:06.176Z,102167.72
2023-02-19T07:26:32.992Z,102175.50
2023-02-19T07:28:59.611Z,102189.47
2023-02-19T07:31:26.386Z,102192.91
2023-02-19T07:34:00.742Z,102178.69
2023-02-19T07:36:28.692Z,102171.63
2023-02-19T07:38:57.532Z,102175.22
2023-02-19T07:41:27.396Z,102170.69
2023-02-19T07:43:54.351Z,102199.38
2023-02-19T07:46:41.500Z,102165.13
2023-02-19T07:49:15.611Z,102174.66
2023-02-19T07:51:43.812Z,102206.78
2023-02-19T07:54:20.634Z,102190.97
2023-02-19T07:56:47.268Z,102202.13
2023-02-19T08:02:57.052Z,102215.22
2023-02-19T08:05:23.600Z,102237.84
2023-02-19T08:07:56.471Z,102225.56
2023-02-19T08:14:00.570Z,102244.31
2023-02-19T08:16:56.258Z,102247.19
2023-02-19T08:22:16.349Z,102254.94
2023-02-19T08:24:52.679Z,102258.94
2023-02-19T08:27:22.969Z,102259.56
2023-02-19T08:29:52.128Z,102261.00
2023-02-19T08:32:18.797Z,102251.75
2023-02-19T08:34:56.491Z,102278.03
2023-02-19T08:37:24.277Z,102260.47
2023-02-19T08:39:53.495Z,102283.34
2023-02-19T08:42:20.100Z,102283.34
2023-02-19T08:44:46.784Z,102278.06
2023-02-19T08:47:13.535Z,102266.81
2023-02-19T08:49:42.871Z,102292.13
2023-02-19T08:52:09.489Z,102300.00
2023-02-19T08:54:37.257Z,102273.56
2023-02-19T08:57:05.233Z,102305.22
2023-02-19T08:59:32.403Z,102259.78
2023-02-19T09:01:59.517Z,102285.44
2023-02-19T09:04:28.748Z,102317.84
2023-02-19T09:07:39.382Z,102294.69
2023-02-19T09:10:15.375Z,102287.34
2023-02-19T09:12:54.623Z,102283.91
2023-02-19T09:21:25.696Z,102320.03
2023-02-19T09:23:57.821Z,102323.25
2023-02-19T09:26:39.422Z,102343.91
2023-02-19T09:29:32.339Z,102347.38
2023-02-19T09:32:19.207Z,102331.94
2023-02-19T09:34:46.224Z,102368.16
2023-02-19T09:37:12.852Z,102392.59
2023-02-19T09:39:39.473Z,102398.44
2023-02-19T09:42:15.452Z,102416.72
2023-02-19T09:44:45.591Z,102402.84
2023-02-19T09:47:27.779Z,102415.84
2023-02-19T09:50:21.725Z,102416.22
2023-02-19T09:53:03.210Z,102418.25
2023-02-19T09:55:43.680Z,102423.69
2023-02-19T09:58:24.679Z,102424.63
2023-02-19T10:00:52.088Z,102439.22
2023-02-19T10:03:34.504Z,102440.84
2023-02-19T10:06:06.207Z,102449.41
2023-02-19T10:08:35.970Z,102448.63
2023-02-19T10:11:05.210Z,102467.84
2023-02-19T10:13:44.096Z,102468.06
2023-02-19T10:16:17.646Z,102487.88
2023-02-19T10:18:45.330Z,102489.69
2023-02-19T10:21:17.586Z,102496.81
2023-02-19T10:23:44.423Z,102482.97
2023-02-19T10:26:11.154Z,102488.97
2023-02-19T10:28:38.253Z,102491.31
2023-02-19T10:31:16.170Z,102506.66
2023-02-19T10:33:52.356Z,102507.53
2023-02-19T10:36:37.640Z,102507.44
2023-02-19T10:39:36.214Z,102499.53
2023-02-19T10:42:03.559Z,102496.88
2023-02-19T10:44:38.613Z,102495.03
2023-02-19T10:47:05.916Z,102502.25
2023-02-19T10:49:35.927Z,102499.16
2023-02-19T10:52:20.329Z,102500.13
2023-02-19T10:54:50.862Z,102500.13
2023-02-19T10:57:29.992Z,102498.72
2023-02-19T11:00:22.658Z,102486.03
2023-02-19T11:02:49.358Z,102485.69
2023-02-19T11:05:20.108Z,102517.34
2023-02-19T11:07:51.467Z,102521.84
2023-02-19T11:10:27.051Z,102523.47
2023-02-19T11:12:58.282Z,102527.38
2023-02-19T11:15:29.722Z,102531.78
2023-02-19T11:18:19.796Z,102531.69
2023-02-19T11:20:55.816Z,102533.28
2023-02-19T11:23:30.436Z,102524.81
2023-02-19T11:26:01.213Z,102512.56
2023-02-19T11:28:33.787Z,102535.50
2023-02-19T11:31:19.006Z,102537.91
2023-02-19T11:34:04.372Z,102540.72
2023-02-19T11:36:36.514Z,102546.56
2023-02-19T11:39:15.701Z,102540.94
2023-02-19T11:42:30.469Z,102531.91
2023-02-19T11:45:18.696Z,102519.47
2023-02-19T11:48:19.670Z,102520.78
2023-02-19T11:51:02.845Z,102516.25
2023-02-19T11:53:33.101Z,102516.59
2023-02-19T11:56:08.821Z,102521.84
2023-02-19T11:58:44.707Z,102523.41
2023-02-19T12:01:49.213Z,102519.88
2023-02-19T12:04:36.195Z,102524.06
2023-02-19T12:07:23.240Z,102529.03
2023-02-19T12:09:58.847Z,102523.38
2023-02-19T12:12:37.956Z,102521.81
2023-02-19T12:15:22.694Z,102522.16
2023-02-19T12:18:07.437Z,102515.63
2023-02-19T12:20:48.511Z,102518.28
2023-02-19T12:23:26.694Z,102511.53
2023-02-19T12:26:03.167Z,102512.47
2023-02-19T12:28:38.488Z,102520.47
2023-02-19T12:31:23.199Z,102533.88
2023-02-19T12:34:13.727Z,102536.97
2023-02-19T12:37:02.064Z,102532.47
2023-02-19T12:39:57.705Z,102527.25
2023-02-19T12:42:46.050Z,102538.69
2023-02-19T12:45:33.397Z,102539.47
2023-02-19T12:48:05.403Z,102533.81
2023-02-19T12:50:35.228Z,102534.34
2023-02-19T12:53:28.435Z,102513.31
2023-02-19T12:55:56.758Z,102546.50
2023-02-19T12:58:39.699Z,102560.97
2023-02-19T13:01:10.829Z,102518.78
2023-02-19T13:03:56.280Z,102564.81
2023-02-19T13:06:28.272Z,102573.28
2023-02-19T13:09:25.210Z,102583.38
2023-02-19T13:12:30.045Z,102570.78
2023-02-19T13:15:02.955Z,102581.34
2023-02-19T13:17:45.437Z,102587.56
2023-02-19T13:20:25.158Z,102589.44
2023-02-19T13:23:28.716Z,102583.22
2023-02-19T13:26:07.828Z,102572.75
2023-02-19T13:29:11.317Z,102600.34
2023-02-19T13:32:00.674Z,102592.53
2023-02-19T13:34:55.145Z,102605.81
2023-02-19T13:37:23.020Z,102596.56
2023-02-19T13:39:52.460Z,102605.59
2023-02-19T13:42:36.974Z,102596.91
2023-02-19T13:45:06.446Z,102603.19
2023-02-19T13:47:59.375Z,102604.34
2023-02-19T13:50:28.599Z,102612.94
2023-02-19T13:52:56.710Z,102623.34
2023-02-19T13:55:51.991Z,102625.38
2023-02-19T13:58:33.752Z,102616.25
2023-02-19T14:01:01.789Z,102621.50
2023-02-19T14:03:52.091Z,102626.56
2023-02-19T14:06:19.065Z,102626.78
2023-02-19T14:08:56.285Z,102607.72
2023-02-19T14:11:41.371Z,102603.69
2023-02-19T14:14:23.429Z,102609.13
2023-02-19T14:17:01.219Z,102598.47
2023-02-19T14:19:43.138Z,102593.50
2023-02-19T14:22:51.340Z,102588.91
2023-02-19T14:25:48.275Z,102574.72
2023-02-19T14:28:27.545Z,102571.13
2023-02-19T14:31:03.380Z,102563.97
2023-02-19T14:33:37.619Z,102559.91
2023-02-19T14:36:07.464Z,102555.09
2023-02-19T14:38:39.415Z,102549.06
2023-02-19T14:41:07.608Z,102540.22
2023-02-19T14:43:35.635Z,102522.78
2023-02-19T14:46:31.819Z,102516.50
2023-02-19T14:49:07.701Z,102509.81
2023-02-19T14:51:41.510Z,102542.78
2023-02-19T14:54:31.836Z,102540.97
2023-02-19T14:57:00.229Z,102542.66
2023-02-19T14:59:29.006Z,102541.50
2023-02-19T15:02:04.445Z,102554.69
2023-02-19T15:04:36.611Z,102549.88
2023-02-19T15:07:08.632Z,102567.78
2023-02-19T15:09:42.640Z,102587.44
2023-02-19T15:12:16.876Z,102571.00
2023-02-19T15:14:44.861Z,102572.59
2023-02-19T15:17:16.398Z,102570.13
2023-02-19T15:19:44.032Z,102597.84
2023-02-19T15:22:20.856Z,102600.09
2023-02-19T15:24:48.776Z,102614.41
2023-02-19T15:27:21.245Z,102595.28
2023-02-19T15:29:51.717Z,102593.94
2023-02-19T15:32:22.851Z,102596.59
2023-02-19T15:35:01.769Z,102593.66
2023-02-19T15:37:31.638Z,102602.31
2023-02-19T15:40:01.399Z,102596.91
2023-02-19T15:42:34.006Z,102605.44
2023-02-19T15:45:15.482Z,102599.25
2023-02-19T15:47:57.445Z,102602.00
2023-02-19T15:50:30.029Z,102607.78
2023-02-19T15:53:03.957Z,102586.13
2023-02-19T15:55:43.416Z,102622.22
2023-02-19T15:58:19.458Z,102605.31
2023-02-19T16:00:54.182Z,102595.44
2023-02-19T16:03:23.688Z,102635.84
2023-02-19T16:06:06.603Z,102634.66
2023-02-19T16:08:36.452Z,102644.19
2023-02-19T16:11:06.643Z,102638.66
2023-02-19T16:13:34.728Z,102623.03
2023-02-19T16:16:18.702Z,102632.66
2023-02-19T16:18:47.554Z,102643.88
2023-02-19T16:21:16.974Z,102655.00
2023-02-19T16:23:46.608Z,102650.94
2023-02-19T16:26:13.314Z,102645.47
2023-02-19T16:28:42.000Z,102644.75
2023-02-19T16:31:11.994Z,102654.50
2023-02-19T16:33:41.953Z,102654.38
2023-02-19T16:36:38.345Z,102665.34
2023-02-19T16:39:08.042Z,102657.75
2023-02-19T16:41:34.552Z,102655.75
2023-02-19T16:44:06.630Z,102635.50
2023-02-19T16:46:33.418Z,102644.56
2023-02-19T16:49:00.060Z,102641.16
2023-02-19T16:51:28.057Z,102657.44
2023-02-19T16:53:54.655Z,102631.03
2023-02-19T16:56:23.069Z,102645.81
2023-02-19T16:58:50.701Z,102637.03
2023-02-19T17:01:18.591Z,102637.91
2023-02-19T17:03:47.289Z,102629.66
2023-02-19T17:06:15.512Z,102622.19
2023-02-19T17:08:44.227Z,102641.19
2023-02-19T17:11:14.323Z,102653.38
2023-02-19T17:13:42.256Z,102669.47
2023-02-19T17:16:22.219Z,102643.97
2023-02-19T17:18:50.037Z,102674.38
2023-02-19T17:21:21.264Z,102664.81
2023-02-19T17:23:47.853Z,102669.59
2023-02-19T17:26:19.842Z,102677.81
2023-02-19T17:28:47.096Z,102674.88
2023-02-19T17:31:14.617Z,102677.34
2023-02-19T17:33:41.704Z,102677.28
2023-02-19T17:36:08.917Z,102679.66
2023-02-19T17:38:35.455Z,102678.66
2023-02-19T17:41:02.060Z,102695.38
2023-02-19T17:43:28.584Z,102684.78
2023-02-19T17:45:55.104Z,102681.97
2023-02-19T17:48:21.793Z,102676.72
2023-02-19T17:50:50.247Z,102643.63
2023-02-19T17:53:16.752Z,102670.97
2023-02-19T17:55:43.353Z,102670.97
2023-02-19T17:58:09.879Z,102661.97
2023-02-19T18:00:36.716Z,102668.94
2023-02-19T18:03:04.216Z,102667.44
2023-02-19T18:05:31.457Z,102659.66
2023-02-19T18:07:58.092Z,102643.22
2023-02-19T18:10:25.309Z,102656.38
2023-02-19T18:12:52.269Z,102658.94
2023-02-19T18:15:22.023Z,102659.78
2023-02-19T18:17:48.705Z,102651.25
2023-02-19T18:20:24.543Z,102648.34
2023-02-19T18:22:51.518Z,102648.28
2023-02-19T18:25:19.418Z,102661.25
2023-02-19T18:27:46.314Z,102660.03
2023-02-19T18:30:16.823Z,102661.81
2023-02-19T18:32:43.388Z,102657.94
2023-02-19T18:35:10.047Z,102651.72
2023-02-19T18:37:36.670Z,102646.25
2023-02-19T18:40:04.276Z,102658.97
2023-02-19T18:42:30.972Z,102661.28
2023-02-19T18:44:57.750Z,102648.13
2023-02-19T18:47:25.513Z,102672.75
2023-02-19T18:49:55.662Z,102667.13
2023-02-19T18:52:24.885Z,102645.19
2023-02-19T18:54:53.528Z,102662.03
2023-02-19T18:57:22.479Z,102657.19
2023-02-19T18:59:49.161Z,102656.69
2023-02-19T19:02:15.973Z,102662.50
2023-02-19T19:04:43.292Z,102653.06
2023-02-19T19:07:10.829Z,102667.81
2023-02-19T19:09:37.511Z,102659.63
2023-02-19T19:12:04.454Z,102654.94
2023-02-19T19:14:31.004Z,102654.69
2023-02-19T19:16:57.640Z,102675.94
2023-02-19T19:19:24.442Z,102672.66
2023-02-19T19:21:54.856Z,102683.53
2023-02-19T19:24:23.146Z,102659.25
2023-02-19T19:26:51.130Z,102679.63
2023-02-19T19:29:20.092Z,102676.22
2023-02-19T19:31:46.799Z,102671.69
2023-02-19T19:34:13.817Z,102678.56
2023-02-19T19:36:40.421Z,102678.84
2023-02-19T19:39:08.218Z,102676.91
2023-02-19T19:41:34.825Z,102672.47
2023-02-19T19:44:05.935Z,102669.59
2023-02-19T19:46:33.371Z,102674.97
2023-02-19T19:49:00.288Z,102664.09
2023-02-19T19:51:34.394Z,102660.22
2023-02-19T19:54:04.062Z,102676.44
2023-02-19T19:56:31.436Z,102679.88
2023-02-19T19:58:58.073Z,102676.19
2023-02-19T20:01:24.700Z,102665.97
2023-02-19T20:03:51.351Z,102656.16
2023-02-19T20:06:27.662Z,102657.75
2023-02-19T20:08:54.411Z,102663.84
2023-02-19T20:11:21.043Z,102650.19
2023-02-19T20:13:47.625Z,102664.53
2023-02-19T20:16:14.727Z,102657.47
2023-02-19T20:18:41.622Z,102667.00
2023-02-19T20:21:10.063Z,102674.56
2023-02-19T20:23:39.640Z,102677.22
2023-02-19T20:26:07.005Z,102671.84
2023-02-19T20:28:33.931Z,102667.16
2023-02-19T20:31:00.734Z,102648.19
2023-02-19T20:33:27.376Z,102668.41
2023-02-19T20:35:53.983Z,102661.34
2023-02-19T20:38:20.593Z,102665.66
2023-02-19T20:40:47.256Z,102655.88
2023-02-19T20:43:13.920Z,102657.44
2023-02-19T20:45:41.093Z,102641.94
2023-02-19T20:48:07.637Z,102630.63
2023-02-19T20:50:34.267Z,102627.66
2023-02-19T20:53:01.233Z,102606.31
2023-02-19T20:55:28.785Z,102611.81
2023-02-19T20:57:55.404Z,102611.53
2023-02-19T21:00:22.331Z,102599.53
2023-02-19T21:02:48.990Z,102585.34
2023-02-19T21:05:20.613Z,102615.16
2023-02-19T21:07:47.225Z,102570.44
2023-02-19T21:10:13.908Z,102615.06
2023-02-19T21:12:42.047Z,102627.50
2023-02-19T21:15:09.232Z,102608.88
2023-02-19T21:17:35.861Z,102615.06
2023-02-19T21:20:02.412Z,102598.28
2023-02-19T21:22:29.141Z,102619.66
2023-02-19T21:24:55.653Z,102586.22
2023-02-19T21:27:22.354Z,102635.94
2023-02-19T21:29:51.423Z,102602.28
2023-02-19T21:32:18.187Z,102604.31
2023-02-19T21:34:44.881Z,102629.78
2023-02-19T21:37:11.443Z,102626.09
2023-02-19T21:39:38.869Z,102628.31
2023-02-19T21:42:05.569Z,102601.75
2023-02-19T21:44:32.195Z,102624.34
2023-02-19T21:46:58.878Z,102635.38
2023-02-19T21:49:25.572Z,102606.63
2023-02-19T21:51:52.421Z,102631.38
2023-02-19T21:54:21.943Z,102631.56
2023-02-19T21:56:48.833Z,102633.16
2023-02-19T21:59:15.512Z,102629.78
2023-02-19T22:01:43.298Z,102626.09
2023-02-19T22:04:14.072Z,102634.91
2023-02-19T22:06:41.306Z,102640.81
2023-02-19T22:09:09.375Z,102623.63
2023-02-19T22:11:36.298Z,102617.44
2023-02-19T22:14:07.097Z,102623.81
2023-02-19T22:16:39.279Z,102600.16
2023-02-19T22:19:05.892Z,102615.53
2023-02-19T22:21:33.167Z,102603.50
2023-02-19T22:24:01.212Z,102607.06
2023-02-19T22:26:30.707Z,102608.13
2023-02-19T22:28:59.439Z,102606.53
2023-02-19T22:31:27.605Z,102597.19
2023-02-19T22:33:56.054Z,102586.59
2023-02-19T22:36:27.727Z,102588.63
2023-02-19T22:38:54.950Z,102576.47
2023-02-19T22:41:22.834Z,102584.66
2023-02-19T22:43:49.915Z,102569.25
2023-02-19T22:46:19.287Z,102565.38
2023-02-19T22:48:46.438Z,102560.66
2023-02-19T22:51:15.527Z,102527.53
2023-02-19T22:53:46.636Z,102558.72
2023-02-19T22:56:16.259Z,102523.06
2023-02-19T22:58:43.141Z,102534.00
2023-02-19T23:01:13.693Z,102545.47
2023-02-19T23:03:51.405Z,102545.59
2023-02-19T23:06:28.406Z,102538.66
2023-02-19T23:08:56.686Z,102547.53
2023-02-19T23:11:26.185Z,102542.28
2023-02-19T23:13:53.460Z,102551.22
2023-02-19T23:16:20.172Z,102512.56
2023-02-19T23:18:46.797Z,102519.72
2023-02-19T23:21:13.823Z,102554.75
2023-02-19T23:23:44.721Z,102572.22
2023-02-19T23:26:12.768Z,102566.94
2023-02-19T23:28:40.741Z,102563.75
2023-02-19T23:31:07.436Z,102547.06
2023-02-19T23:33:34.280Z,102555.44
2023-02-19T23:36:00.962Z,102540.56
2023-02-19T23:38:27.623Z,102548.72
2023-02-19T23:40:54.258Z,102553.13
2023-02-19T23:43:21.232Z,102540.41
2023-02-19T23:45:47.944Z,102533.53
2023-02-19T23:48:14.682Z,102534.50
2023-02-19T23:50:41.251Z,102524.88
2023-02-19T23:53:07.796Z,102527.00
2023-02-19T23:55:34.462Z,102522.88
2023-02-19T23:58:01.052Z,102529.22
